Terminal Aerodrome Forecast
Issued by NWS

Home | Current Version | Previous Version | Text Only | Print | Product List | Glossary On
Versions: 1 2 3 4 5 6 7 8 9 10 11 12 13 14 15 16 17
521
FTUS44 KLZK 280539
TAFLLQ
TAF
KLLQ 280539Z 2806/2906 10006KT P6SM SCT100 WS020/19035KT
     FM281500 18010G16KT P6SM SCT040 OVC100 WS020/19040KT
     FM282100 17012G22KT P6SM SCT040 OVC250
     FM290100 15008KT P6SM OVC035=

USA.gov is the U.S. government's official web portal to all federal, state and local government web resources and services.